createdAt,value
2018-05-10T00:00:26.356Z,1000.83
2018-05-10T00:01:26.358Z,1000.78
2018-05-10T00:02:26.355Z,1000.82
2018-05-10T00:03:26.355Z,1000.80
2018-05-10T00:04:26.362Z,1000.78
2018-05-10T00:05:26.363Z,1000.80
2018-05-10T00:06:26.359Z,1000.91
2018-05-10T00:07:26.361Z,1000.87
2018-05-10T00:08:26.361Z,1000.88
2018-05-10T00:09:26.362Z,1000.90
2018-05-10T00:10:26.369Z,1000.90
2018-05-10T00:11:26.377Z,1000.91
2018-05-10T00:12:26.371Z,1000.90
2018-05-10T00:13:26.374Z,1000.88
2018-05-10T00:14:26.429Z,1000.87
2018-05-10T00:15:26.370Z,1000.87
2018-05-10T00:16:26.370Z,1000.87
2018-05-10T00:17:26.369Z,1000.87
2018-05-10T00:18:26.380Z,1000.90
2018-05-10T00:19:26.377Z,1000.84
2018-05-10T00:20:26.373Z,1000.91
2018-05-10T00:21:26.373Z,1000.86
2018-05-10T00:22:26.379Z,1000.86
2018-05-10T00:23:26.381Z,1000.86
2018-05-10T00:24:26.426Z,1000.87
2018-05-10T00:25:26.380Z,1000.85
2018-05-10T00:26:26.377Z,1000.91
2018-05-10T00:27:26.377Z,1000.88
2018-05-10T00:28:26.378Z,1000.86
2018-05-10T00:29:26.381Z,1000.88
2018-05-10T00:30:26.384Z,1000.89
2018-05-10T00:31:26.385Z,1000.92
2018-05-10T00:32:26.386Z,1000.91
2018-05-10T00:33:26.386Z,1000.95
2018-05-10T00:34:26.383Z,1000.95
2018-05-10T00:35:26.388Z,1000.97
2018-05-10T00:36:26.391Z,1000.98
2018-05-10T00:37:26.390Z,1000.96
2018-05-10T00:38:26.391Z,1001.01
2018-05-10T00:39:26.387Z,1001.03
2018-05-10T00:40:26.386Z,1001.04
2018-05-10T00:41:26.386Z,1001.03
2018-05-10T00:42:26.391Z,1001.03
2018-05-10T00:43:26.393Z,1001.03
2018-05-10T00:44:26.394Z,1001.03
2018-05-10T00:45:26.394Z,1001.05
2018-05-10T00:46:26.389Z,1001.11
2018-05-10T00:47:26.391Z,1001.12
2018-05-10T00:48:26.391Z,1001.16
2018-05-10T00:49:26.390Z,1001.16
2018-05-10T00:50:26.395Z,1001.16
2018-05-10T00:51:26.396Z,1001.17
2018-05-10T00:52:26.392Z,1001.15
2018-05-10T00:53:26.392Z,1001.22
2018-05-10T00:54:26.397Z,1001.24
2018-05-10T00:55:26.399Z,1001.24
2018-05-10T00:56:26.399Z,1001.24
2018-05-10T00:57:26.400Z,1001.24
2018-05-10T00:58:26.397Z,1001.29
2018-05-10T00:59:26.394Z,1001.30
2018-05-10T01:00:26.395Z,1001.25
2018-05-10T01:01:26.395Z,1001.27
2018-05-10T01:02:26.400Z,1001.26
2018-05-10T01:03:26.404Z,1001.31
2018-05-10T01:04:26.400Z,1001.32
2018-05-10T01:05:26.400Z,1001.37
2018-05-10T01:06:26.397Z,1001.40
2018-05-10T01:07:26.396Z,1001.41
2018-05-10T01:08:26.403Z,1001.41
2018-05-10T01:09:26.400Z,1001.43
2018-05-10T01:10:26.397Z,1001.40
2018-05-10T01:11:26.398Z,1001.38
2018-05-10T01:12:26.406Z,1001.35
2018-05-10T01:13:26.408Z,1001.32
2018-05-10T01:14:26.403Z,1001.34
2018-05-10T01:15:26.404Z,1001.34
2018-05-10T01:16:26.403Z,1001.36
2018-05-10T01:17:26.403Z,1001.43
2018-05-10T01:18:26.398Z,1001.36
2018-05-10T01:19:26.399Z,1001.39
2018-05-10T01:20:26.399Z,1001.43
2018-05-10T01:21:26.398Z,1001.43
2018-05-10T01:22:26.476Z,1001.42
2018-05-10T01:23:26.403Z,1001.49
2018-05-10T01:24:26.399Z,1001.50
2018-05-10T01:25:26.400Z,1001.50
2018-05-10T01:26:26.402Z,1001.52
2018-05-10T01:27:26.404Z,1001.47
2018-05-10T01:28:26.403Z,1001.46
2018-05-10T01:29:26.403Z,1001.48
2018-05-10T01:30:26.398Z,1001.42
2018-05-10T01:31:26.398Z,1001.46
2018-05-10T01:32:26.399Z,1001.50
2018-05-10T01:33:26.397Z,1001.46
2018-05-10T01:34:26.403Z,1001.49
2018-05-10T01:35:26.403Z,1001.47
2018-05-10T01:36:26.402Z,1001.50
2018-05-10T01:37:26.401Z,1001.49
2018-05-10T01:38:26.396Z,1001.49
2018-05-10T01:39:26.399Z,1001.50
2018-05-10T01:40:26.400Z,1001.51
2018-05-10T01:41:26.399Z,1001.54
2018-05-10T01:42:26.395Z,1001.52
2018-05-10T01:43:26.395Z,1001.58
2018-05-10T01:44:26.395Z,1001.51
2018-05-10T01:45:26.395Z,1001.54
2018-05-10T01:46:26.403Z,1001.50
2018-05-10T01:47:26.399Z,1001.54
2018-05-10T01:48:26.399Z,1001.52
2018-05-10T01:49:26.398Z,1001.53
2018-05-10T01:50:26.394Z,1001.55
2018-05-10T01:51:26.393Z,1001.55
2018-05-10T01:52:26.392Z,1001.59
2018-05-10T01:53:26.391Z,1001.59
2018-05-10T01:54:26.395Z,1001.60
2018-05-10T01:55:26.395Z,1001.63
2018-05-10T01:56:26.392Z,1001.66
2018-05-10T01:57:26.390Z,1001.69
2018-05-10T01:58:26.394Z,1001.65
2018-05-10T01:59:26.393Z,1001.66
2018-05-10T02:00:26.394Z,1001.63
2018-05-10T02:01:26.394Z,1001.65
2018-05-10T02:02:26.390Z,1001.67
2018-05-10T02:03:26.388Z,1001.61
2018-05-10T02:04:26.388Z,1001.67
2018-05-10T02:05:26.387Z,1001.63
2018-05-10T02:06:26.391Z,1001.64
2018-05-10T02:07:26.391Z,1001.67
2018-05-10T02:08:26.395Z,1001.68
2018-05-10T02:09:26.393Z,1001.65
2018-05-10T02:10:26.385Z,1001.66
2018-05-10T02:11:26.384Z,1001.69
2018-05-10T02:12:26.388Z,1001.72
2018-05-10T02:13:26.388Z,1001.72
2018-05-10T02:14:26.385Z,1001.77
2018-05-10T02:15:26.382Z,1001.79
2018-05-10T02:16:26.384Z,1001.77
2018-05-10T02:17:26.382Z,1001.78
2018-05-10T02:18:26.388Z,1001.79
2018-05-10T02:19:26.385Z,1001.84
2018-05-10T02:20:26.389Z,1001.81
2018-05-10T02:21:26.384Z,1001.85
2018-05-10T02:22:26.379Z,1001.83
2018-05-10T02:23:26.378Z,1001.86
2018-05-10T02:24:26.457Z,1001.85
2018-05-10T02:25:26.377Z,1001.83
2018-05-10T02:26:26.385Z,1001.85
2018-05-10T02:27:26.380Z,1001.84
2018-05-10T02:28:26.375Z,1001.86
2018-05-10T02:29:26.378Z,1001.84
2018-05-10T02:30:26.377Z,1001.82
2018-05-10T02:31:26.378Z,1001.82
2018-05-10T02:32:26.377Z,1001.80
2018-05-10T02:33:26.376Z,1001.76
2018-05-10T02:34:26.373Z,1001.74
2018-05-10T02:35:26.369Z,1001.77
2018-05-10T02:36:26.463Z,1001.78
2018-05-10T02:37:26.373Z,1001.76
2018-05-10T02:38:26.372Z,1001.81
2018-05-10T02:39:26.371Z,1001.79
2018-05-10T02:40:26.370Z,1001.80
2018-05-10T02:41:26.368Z,1001.87
2018-05-10T02:42:26.446Z,1001.92
2018-05-10T02:43:26.364Z,1001.92
2018-05-10T02:44:26.367Z,1001.93
2018-05-10T02:45:26.369Z,1002.00
2018-05-10T02:46:26.359Z,1001.99
2018-05-10T02:47:26.357Z,1002.00
2018-05-10T02:48:26.357Z,1002.01
2018-05-10T02:49:26.356Z,1002.03
2018-05-10T02:50:26.360Z,1002.02
2018-05-10T02:51:26.364Z,1001.99
2018-05-10T02:52:26.357Z,1002.02
2018-05-10T02:53:26.355Z,1002.05
2018-05-10T02:54:26.350Z,1002.07
2018-05-10T02:55:26.349Z,1001.95
2018-05-10T02:56:26.348Z,1001.98
2018-05-10T02:57:26.347Z,1002.01
2018-05-10T02:58:26.349Z,1002.09
2018-05-10T02:59:26.350Z,1002.15
2018-05-10T03:00:26.351Z,1002.11
2018-05-10T03:01:26.342Z,1002.09
2018-05-10T03:02:26.345Z,1002.10
2018-05-10T03:03:26.344Z,1002.16
2018-05-10T03:04:26.342Z,1002.20
2018-05-10T03:05:26.340Z,1002.22
2018-05-10T03:06:26.334Z,1002.18
2018-05-10T03:07:26.333Z,1002.18
2018-05-10T03:08:26.331Z,1002.22
2018-05-10T03:09:26.330Z,1002.18
2018-05-10T03:10:26.333Z,1002.20
2018-05-10T03:11:26.332Z,1002.25
2018-05-10T03:12:26.332Z,1002.28
2018-05-10T03:13:26.329Z,1002.27
2018-05-10T03:14:26.324Z,1002.31
2018-05-10T03:15:26.322Z,1002.33
2018-05-10T03:16:26.325Z,1002.37
2018-05-10T03:17:26.323Z,1002.38
2018-05-10T03:18:26.320Z,1002.40
2018-05-10T03:19:26.315Z,1002.37
2018-05-10T03:20:26.314Z,1002.35
2018-05-10T03:21:26.311Z,1002.33
2018-05-10T03:22:26.315Z,1002.35
2018-05-10T03:23:26.314Z,1002.34
2018-05-10T03:24:26.312Z,1002.31
2018-05-10T03:25:26.310Z,1002.34
2018-05-10T03:26:26.304Z,1002.33
2018-05-10T03:27:26.304Z,1002.36
2018-05-10T03:28:26.303Z,1002.33
2018-05-10T03:29:26.308Z,1002.37
2018-05-10T03:30:26.307Z,1002.39
2018-05-10T03:31:26.302Z,1002.36
2018-05-10T03:32:26.297Z,1002.40
2018-05-10T03:33:26.295Z,1002.37
2018-05-10T03:34:26.302Z,1002.39
2018-05-10T03:35:26.300Z,1002.37
2018-05-10T03:36:26.295Z,1002.40
2018-05-10T03:37:26.293Z,1002.33
2018-05-10T03:38:26.287Z,1002.35
2018-05-10T03:39:26.286Z,1002.36
2018-05-10T03:40:26.287Z,1002.37
2018-05-10T03:41:26.283Z,1002.36
2018-05-10T03:42:26.285Z,1002.39
2018-05-10T03:43:26.285Z,1002.38
2018-05-10T03:44:26.288Z,1002.39
2018-05-10T03:45:26.286Z,1002.39
2018-05-10T03:46:26.374Z,1002.44
2018-05-10T03:47:26.276Z,1002.47
2018-05-10T03:48:26.278Z,1002.50
2018-05-10T03:49:26.278Z,1002.50
2018-05-10T03:50:26.270Z,1002.53
2018-05-10T03:51:26.269Z,1002.55
2018-05-10T03:52:26.267Z,1002.58
2018-05-10T03:53:26.265Z,1002.60
2018-05-10T03:54:26.268Z,1002.63
2018-05-10T03:55:26.268Z,1002.62
2018-05-10T03:56:26.267Z,1002.62
2018-05-10T03:57:26.264Z,1002.64
2018-05-10T03:58:26.258Z,1002.65
2018-05-10T03:59:26.257Z,1002.64
2018-05-10T04:00:26.255Z,1002.62
2018-05-10T04:01:26.252Z,1002.63
2018-05-10T04:02:26.256Z,1002.66
2018-05-10T04:03:26.340Z,1002.70
2018-05-10T04:04:26.251Z,1002.67
2018-05-10T04:05:26.246Z,1002.68
2018-05-10T04:06:26.249Z,1002.73
2018-05-10T04:07:26.249Z,1002.70
2018-05-10T04:08:26.247Z,1002.69
2018-05-10T04:09:26.245Z,1002.75
2018-05-10T04:10:26.238Z,1002.67
2018-05-10T04:11:26.237Z,1002.72
2018-05-10T04:12:26.235Z,1002.67
2018-05-10T04:13:26.233Z,1002.71
2018-05-10T04:14:26.238Z,1002.74
2018-05-10T04:15:26.237Z,1002.70
2018-05-10T04:16:26.232Z,1002.73
2018-05-10T04:17:26.230Z,1002.77
2018-05-10T04:18:26.225Z,1002.75
2018-05-10T04:19:26.224Z,1002.74
2018-05-10T04:20:26.226Z,1002.74
2018-05-10T04:21:26.224Z,1002.75
2018-05-10T04:22:26.218Z,1002.74
2018-05-10T04:23:26.216Z,1002.80
2018-05-10T04:24:26.223Z,1002.83
2018-05-10T04:25:26.217Z,1002.81
2018-05-10T04:26:26.216Z,1002.86
2018-05-10T04:27:26.213Z,1002.89
2018-05-10T04:28:26.213Z,1002.92
2018-05-10T04:29:26.211Z,1002.88
2018-05-10T04:30:26.203Z,1002.91
2018-05-10T04:31:26.201Z,1002.90
2018-05-10T04:32:26.200Z,1002.90
2018-05-10T04:33:26.197Z,1002.89
2018-05-10T04:34:26.201Z,1002.92
2018-05-10T04:35:26.198Z,1002.94
2018-05-10T04:36:26.195Z,1002.92
2018-05-10T04:37:26.190Z,1002.90
2018-05-10T04:38:26.193Z,1002.94
2018-05-10T04:39:26.191Z,1002.94
2018-05-10T04:40:26.191Z,1003.00
2018-05-10T04:41:26.197Z,1003.02
2018-05-10T04:42:26.181Z,1003.06
2018-05-10T04:43:26.179Z,1003.04
2018-05-10T04:44:26.186Z,1003.10
2018-05-10T04:45:26.175Z,1003.07
2018-05-10T04:46:26.179Z,1003.06
2018-05-10T04:47:26.177Z,1003.09
2018-05-10T04:48:26.174Z,1003.10
2018-05-10T04:49:26.172Z,1003.08
2018-05-10T04:50:26.166Z,1003.12
2018-05-10T04:51:26.164Z,1003.16
2018-05-10T04:52:26.167Z,1003.17
2018-05-10T04:53:26.164Z,1003.15
2018-05-10T04:54:26.158Z,1003.20
2018-05-10T04:55:26.156Z,1003.18
2018-05-10T04:56:26.156Z,1003.21
2018-05-10T04:57:26.153Z,1003.25
2018-05-10T04:58:26.156Z,1003.24
2018-05-10T04:59:26.155Z,1003.24
2018-05-10T05:00:26.151Z,1003.25
2018-05-10T05:01:26.152Z,1003.27
2018-05-10T05:02:26.143Z,1003.23
2018-05-10T05:03:26.224Z,1003.23
2018-05-10T05:04:26.139Z,1003.23
2018-05-10T05:05:26.137Z,1003.25
2018-05-10T05:06:26.141Z,1003.21
2018-05-10T05:07:26.140Z,1003.28
2018-05-10T05:08:26.133Z,1003.27
2018-05-10T05:09:26.129Z,1003.26
2018-05-10T05:10:26.133Z,1003.25
2018-05-10T05:11:26.131Z,1003.27
2018-05-10T05:12:26.129Z,1003.29
2018-05-10T05:13:26.127Z,1003.32
2018-05-10T05:14:26.119Z,1003.33
2018-05-10T05:15:26.118Z,1003.34
2018-05-10T05:16:26.117Z,1003.35
2018-05-10T05:17:26.113Z,1003.37
2018-05-10T05:18:26.117Z,1003.36
2018-05-10T05:19:26.115Z,1003.41
2018-05-10T05:20:26.117Z,1003.43
2018-05-10T05:21:26.114Z,1003.41
2018-05-10T05:22:26.104Z,1003.46
2018-05-10T05:23:26.104Z,1003.50
2018-05-10T05:24:26.107Z,1003.44
2018-05-10T05:25:26.104Z,1003.46
2018-05-10T05:26:26.101Z,1003.49
2018-05-10T05:27:26.096Z,1003.49
2018-05-10T05:28:26.095Z,1003.50
2018-05-10T05:29:26.092Z,1003.52
2018-05-10T05:30:26.095Z,1003.54
2018-05-10T05:31:26.094Z,1003.52
2018-05-10T05:32:26.092Z,1003.56
2018-05-10T05:33:26.091Z,1003.53
2018-05-10T05:34:26.086Z,1003.59
2018-05-10T05:35:26.084Z,1003.57
2018-05-10T05:36:26.086Z,1003.59
2018-05-10T05:37:26.080Z,1003.59
2018-05-10T05:38:26.083Z,1003.61
2018-05-10T05:39:26.083Z,1003.62
2018-05-10T05:40:26.076Z,1003.63
2018-05-10T05:41:26.164Z,1003.77
2018-05-10T05:42:26.078Z,1003.75
2018-05-10T05:43:26.170Z,1003.80
2018-05-10T05:44:26.079Z,1003.82
2018-05-10T05:45:26.074Z,1003.85
2018-05-10T05:46:26.067Z,1003.89
2018-05-10T05:47:26.066Z,1003.88
2018-05-10T05:48:26.065Z,1003.86
2018-05-10T05:49:26.063Z,1003.85
2018-05-10T05:50:26.067Z,1003.89
2018-05-10T05:51:26.066Z,1003.91
2018-05-10T05:52:26.066Z,1003.89
2018-05-10T05:53:26.063Z,1003.86
2018-05-10T05:54:26.057Z,1003.93
2018-05-10T05:55:26.056Z,1003.94
2018-05-10T05:56:26.066Z,1003.97
2018-05-10T05:57:26.059Z,1004.02
2018-05-10T05:58:26.054Z,1004.12
2018-05-10T05:59:26.052Z,1004.02
2018-05-10T06:00:26.051Z,1004.07
2018-05-10T06:01:26.049Z,1004.11
2018-05-10T06:02:26.053Z,1004.12
2018-05-10T06:03:26.052Z,1004.17
2018-05-10T06:04:26.069Z,1004.19
2018-05-10T06:05:26.047Z,1004.20
2018-05-10T06:06:26.051Z,1004.26
2018-05-10T06:07:26.050Z,1004.28
2018-05-10T06:08:26.048Z,1004.31
2018-05-10T06:09:26.058Z,1004.28
2018-05-10T06:10:26.044Z,1004.29
2018-05-10T06:11:26.043Z,1004.35
2018-05-10T06:12:26.048Z,1004.45
2018-05-10T06:13:26.045Z,1004.41
2018-05-10T06:14:26.043Z,1004.47
2018-05-10T06:15:26.049Z,1004.41
2018-05-10T06:16:26.043Z,1004.39
2018-05-10T06:17:26.042Z,1004.36
2018-05-10T06:18:26.047Z,1004.40
2018-05-10T06:19:26.057Z,1004.43
2018-05-10T06:20:26.048Z,1004.43
2018-05-10T06:21:26.048Z,1004.48
2018-05-10T06:22:26.047Z,1004.50
2018-05-10T06:23:26.046Z,1004.50
2018-05-10T06:24:26.045Z,1004.51
2018-05-10T06:25:26.045Z,1004.49
2018-05-10T06:26:26.050Z,1004.56
2018-05-10T06:27:26.052Z,1004.58
2018-05-10T06:28:26.048Z,1004.60
2018-05-10T06:29:26.051Z,1004.58
2018-05-10T06:30:26.052Z,1004.53
2018-05-10T06:31:26.053Z,1004.65
2018-05-10T06:32:26.055Z,1004.59
2018-05-10T06:33:26.054Z,1004.67
2018-05-10T06:34:26.050Z,1004.63
2018-05-10T06:35:26.051Z,1004.63
2018-05-10T06:36:26.054Z,1004.66
2018-05-10T06:37:26.052Z,1004.69
2018-05-10T06:38:26.056Z,1004.67
2018-05-10T06:39:26.058Z,1004.70
2018-05-10T06:40:26.058Z,1004.70
2018-05-10T06:41:26.113Z,1004.72
2018-05-10T06:42:26.054Z,1004.74
2018-05-10T06:43:26.054Z,1004.77
2018-05-10T06:44:26.059Z,1004.74
2018-05-10T06:45:26.060Z,1004.72
2018-05-10T06:46:26.054Z,1004.70
2018-05-10T06:47:26.055Z,1004.69
2018-05-10T06:48:26.056Z,1004.73
2018-05-10T06:49:26.059Z,1004.69
2018-05-10T06:50:26.060Z,1004.71
2018-05-10T06:51:26.062Z,1004.69
2018-05-10T06:52:26.063Z,1004.71
2018-05-10T06:53:26.063Z,1004.72
2018-05-10T06:54:26.058Z,1004.70
2018-05-10T06:55:26.058Z,1004.74
2018-05-10T06:56:26.060Z,1004.72
2018-05-10T06:57:26.058Z,1004.65
2018-05-10T06:58:26.063Z,1004.66
2018-05-10T06:59:26.064Z,1004.72
2018-05-10T07:00:26.062Z,1004.73
2018-05-10T07:01:26.064Z,1004.71
2018-05-10T07:02:26.068Z,1004.76
2018-05-10T07:03:26.163Z,1004.72
2018-05-10T07:04:26.076Z,1004.76
2018-05-10T07:05:26.070Z,1004.72
2018-05-10T07:06:26.067Z,1004.76
2018-05-10T07:07:26.070Z,1004.75
2018-05-10T07:08:26.069Z,1004.77
2018-05-10T07:09:26.098Z,1004.76
2018-05-10T07:10:26.074Z,1004.79
2018-05-10T07:11:26.076Z,1004.79
2018-05-10T07:12:26.078Z,1004.76
2018-05-10T07:13:26.079Z,1004.79
2018-05-10T07:14:26.076Z,1004.83
2018-05-10T07:15:26.080Z,1004.81
2018-05-10T07:16:26.084Z,1004.86
2018-05-10T07:17:26.085Z,1004.88
2018-05-10T07:18:26.082Z,1004.88
2018-05-10T07:19:26.084Z,1004.97
2018-05-10T07:20:26.086Z,1004.94
2018-05-10T07:21:26.087Z,1004.95
2018-05-10T07:22:26.096Z,1004.97
2018-05-10T07:23:26.095Z,1004.96
2018-05-10T07:24:26.098Z,1004.97
2018-05-10T07:25:26.119Z,1004.97
2018-05-10T07:26:26.097Z,1004.98
2018-05-10T07:27:26.099Z,1005.00
2018-05-10T07:28:26.101Z,1005.05
2018-05-10T07:29:26.102Z,1005.09
2018-05-10T07:30:26.110Z,1005.04
2018-05-10T07:31:26.115Z,1005.06
2018-05-10T07:32:26.111Z,1005.08
2018-05-10T07:33:26.111Z,1005.16
2018-05-10T07:34:26.124Z,1005.12
2018-05-10T07:35:26.120Z,1005.22
2018-05-10T07:36:26.126Z,1005.32
2018-05-10T07:37:26.124Z,1005.31
2018-05-10T07:38:26.123Z,1005.36
2018-05-10T07:39:26.128Z,1005.36
2018-05-10T07:40:26.130Z,1005.48
2018-05-10T07:41:26.132Z,1005.61
2018-05-10T07:42:26.140Z,1005.59
2018-05-10T07:43:26.144Z,1005.61
2018-05-10T07:44:26.149Z,1005.54
2018-05-10T07:45:26.150Z,1005.61
2018-05-10T07:46:26.150Z,1005.55
2018-05-10T07:47:26.223Z,1005.65
2018-05-10T07:48:26.164Z,1005.63
2018-05-10T07:49:26.168Z,1005.70
2018-05-10T07:50:26.168Z,1005.82
2018-05-10T07:51:26.172Z,1005.75
2018-05-10T07:52:26.177Z,1006.14
2018-05-10T07:53:26.182Z,1006.16
2018-05-10T07:54:26.196Z,1006.17
2018-05-10T07:55:26.197Z,1006.27
2018-05-10T07:56:26.201Z,1005.86
2018-05-10T07:57:26.207Z,1005.88
2018-05-10T07:58:26.208Z,1005.89
2018-05-10T07:59:26.215Z,1005.89
2018-05-10T08:00:26.224Z,1005.94
2018-05-10T08:01:26.230Z,1006.05
2018-05-10T08:02:26.239Z,1006.08
2018-05-10T08:03:26.253Z,1006.09
2018-05-10T08:04:26.251Z,1006.02
2018-05-10T08:05:26.258Z,1006.12
2018-05-10T08:06:26.272Z,1005.98
2018-05-10T08:07:26.280Z,1005.95
2018-05-10T08:08:26.289Z,1006.00
2018-05-10T08:09:26.296Z,1006.06
2018-05-10T08:10:26.302Z,1006.07
2018-05-10T08:11:26.313Z,1006.02
2018-05-10T08:12:26.321Z,1005.96
2018-05-10T08:13:26.331Z,1006.00
2018-05-10T08:14:26.346Z,1006.02
2018-05-10T08:15:26.356Z,1006.09
2018-05-10T08:16:26.365Z,1006.19
2018-05-10T08:17:26.375Z,1006.12
2018-05-10T08:18:26.380Z,1006.03
2018-05-10T08:19:26.391Z,1005.97
2018-05-10T08:20:26.404Z,1005.96
2018-05-10T08:21:26.413Z,1005.89
2018-05-10T08:22:26.419Z,1005.88
2018-05-10T08:23:26.429Z,1005.93
2018-05-10T08:24:26.439Z,1006.03
2018-05-10T08:25:26.448Z,1006.08
2018-05-10T08:26:26.463Z,1006.47
2018-05-10T08:27:26.479Z,1006.47
2018-05-10T08:28:26.480Z,1006.50
2018-05-10T08:29:26.490Z,1006.36
2018-05-10T08:30:26.494Z,1006.65
2018-05-10T08:31:26.503Z,1006.77
2018-05-10T08:32:26.512Z,1006.75
2018-05-10T08:33:26.522Z,1006.70
2018-05-10T08:34:26.538Z,1006.38
2018-05-10T08:35:26.547Z,1006.41
2018-05-10T08:36:26.648Z,1006.49
2018-05-10T08:37:26.565Z,1006.59
2018-05-10T08:38:26.579Z,1006.51
2018-05-10T08:39:26.594Z,1006.56
2018-05-10T08:40:26.604Z,1006.62
2018-05-10T08:41:26.614Z,1007.13
2018-05-10T08:42:26.622Z,1006.85
2018-05-10T08:43:26.632Z,1007.12
2018-05-10T08:44:26.644Z,1006.85
2018-05-10T08:45:26.653Z,1007.52
2018-05-10T08:46:26.671Z,1007.44
2018-05-10T08:47:26.683Z,1007.59
2018-05-10T08:48:26.698Z,1007.59
2018-05-10T08:49:26.704Z,1007.60
2018-05-10T08:50:26.715Z,1007.59
2018-05-10T08:51:26.727Z,1007.66
2018-05-10T08:52:26.742Z,1007.68
2018-05-10T08:53:26.755Z,1007.61
2018-05-10T08:54:26.770Z,1007.60
2018-05-10T08:55:26.777Z,1007.65
2018-05-10T08:56:26.792Z,1007.67
2018-05-10T08:57:26.804Z,1007.64
2018-05-10T08:58:26.825Z,1007.63
2018-05-10T08:59:26.839Z,1007.19
2018-05-10T09:00:26.854Z,1007.48
2018-05-10T09:01:26.870Z,1007.52
2018-05-10T09:02:26.884Z,1007.56
2018-05-10T09:03:26.896Z,1007.38
2018-05-10T09:04:26.913Z,1007.67
2018-05-10T09:05:26.926Z,1007.58
2018-05-10T09:06:26.947Z,1007.66
2018-05-10T09:07:27.017Z,1007.91
2018-05-10T09:08:26.977Z,1007.55
2018-05-10T09:09:26.991Z,1007.42
2018-05-10T09:10:27.012Z,1007.43
2018-05-10T09:11:27.030Z,1007.37
2018-05-10T09:12:27.046Z,1007.23
2018-05-10T09:13:27.062Z,1007.27
2018-05-10T09:14:27.074Z,1007.40
2018-05-10T09:15:27.091Z,1007.60
2018-05-10T09:16:27.106Z,1007.48
2018-05-10T09:17:27.120Z,1007.29
2018-05-10T09:18:27.141Z,1007.28
2018-05-10T09:19:27.163Z,1007.56
2018-05-10T09:20:27.173Z,1007.49
2018-05-10T09:21:27.189Z,1007.50
2018-05-10T09:22:27.199Z,1007.68
2018-05-10T09:23:27.216Z,1007.39
2018-05-10T09:24:27.246Z,1007.49
2018-05-10T09:25:27.249Z,1007.89
2018-05-10T09:26:27.262Z,1007.85
2018-05-10T09:27:27.274Z,1007.93
2018-05-10T09:28:27.291Z,1008.14
2018-05-10T09:29:27.304Z,1008.23
2018-05-10T09:30:27.323Z,1008.09
2018-05-10T09:31:27.379Z,1007.96
2018-05-10T09:32:27.357Z,1007.87
2018-05-10T09:33:27.368Z,1007.93
2018-05-10T09:34:27.378Z,1008.15
2018-05-10T09:35:27.395Z,1007.98
2018-05-10T09:36:27.411Z,1007.80
2018-05-10T09:37:27.426Z,1007.98
2018-05-10T09:38:27.447Z,1008.07
2018-05-10T09:39:27.497Z,1007.73
2018-05-10T09:40:27.473Z,1007.88
2018-05-10T09:41:27.489Z,1008.27
2018-05-10T09:42:27.511Z,1008.23
2018-05-10T09:43:27.527Z,1007.74
2018-05-10T09:44:27.542Z,1007.61
2018-05-10T09:45:27.557Z,1007.59
2018-05-10T09:46:27.570Z,1007.69
2018-05-10T09:47:27.586Z,1007.85
2018-05-10T09:48:27.601Z,1007.89
2018-05-10T09:49:27.617Z,1008.11
2018-05-10T09:50:27.638Z,1008.13
2018-05-10T09:51:27.660Z,1007.94
2018-05-10T09:52:27.671Z,1007.81
2018-05-10T09:53:27.684Z,1007.78
2018-05-10T09:54:27.695Z,1007.94
2018-05-10T09:55:27.712Z,1007.91
2018-05-10T09:56:27.731Z,1007.72
2018-05-10T09:57:27.745Z,1007.73
2018-05-10T09:58:27.756Z,1007.86
2018-05-10T09:59:27.771Z,1007.82
2018-05-10T10:00:27.786Z,1007.96
2018-05-10T10:01:27.800Z,1008.09
2018-05-10T10:02:27.819Z,1007.96
2018-05-10T10:03:27.837Z,1007.93
2018-05-10T10:04:27.848Z,1007.81
2018-05-10T10:05:27.862Z,1007.78
2018-05-10T10:06:27.873Z,1007.65
2018-05-10T10:07:27.887Z,1007.59
2018-05-10T10:08:27.901Z,1007.65
2018-05-10T10:09:27.914Z,1007.65
2018-05-10T10:10:27.933Z,1007.70
2018-05-10T10:11:27.949Z,1007.67
2018-05-10T10:12:27.954Z,1007.67
2018-05-10T10:13:27.966Z,1007.72
2018-05-10T10:14:27.984Z,1007.68
2018-05-10T10:15:27.997Z,1007.63
2018-05-10T10:16:28.009Z,1007.67
2018-05-10T10:17:28.018Z,1007.62
2018-05-10T10:18:28.026Z,1007.61
2018-05-10T10:19:28.037Z,1007.64
2018-05-10T10:20:28.047Z,1007.64
2018-05-10T10:21:28.057Z,1007.73
2018-05-10T10:22:28.071Z,1007.72
2018-05-10T10:23:28.082Z,1007.70
2018-05-10T10:24:28.094Z,1007.67
2018-05-10T10:25:28.100Z,1007.71
2018-05-10T10:26:28.107Z,1007.74
2018-05-10T10:27:28.154Z,1007.77
2018-05-10T10:28:28.132Z,1007.79
2018-05-10T10:29:28.136Z,1007.74
2018-05-10T10:30:28.140Z,1007.76
2018-05-10T10:31:28.148Z,1007.76
2018-05-10T10:32:28.197Z,1007.76
2018-05-10T10:33:28.163Z,1007.78
2018-05-10T10:34:28.182Z,1007.89
2018-05-10T10:35:28.183Z,1007.88
2018-05-10T10:36:28.191Z,1007.93
2018-05-10T10:37:28.203Z,1007.94
2018-05-10T10:38:28.201Z,1007.96
2018-05-10T10:39:28.208Z,1007.98
2018-05-10T10:40:28.216Z,1007.97
2018-05-10T10:41:28.223Z,1007.95
2018-05-10T10:42:28.235Z,1007.98
2018-05-10T10:43:28.242Z,1007.95
2018-05-10T10:44:28.243Z,1008.00
2018-05-10T10:45:28.281Z,1007.95
2018-05-10T10:46:28.265Z,1007.96
2018-05-10T10:47:28.269Z,1007.89
2018-05-10T10:48:28.274Z,1007.86
2018-05-10T10:49:28.280Z,1007.93
2018-05-10T10:50:28.282Z,1007.86
2018-05-10T10:51:28.288Z,1007.83
2018-05-10T10:52:28.297Z,1007.85
2018-05-10T10:53:28.301Z,1007.84
2018-05-10T10:54:28.312Z,1007.87
2018-05-10T10:55:28.318Z,1007.89
2018-05-10T10:56:28.325Z,1007.87
2018-05-10T10:57:28.330Z,1007.96
2018-05-10T10:58:28.331Z,1007.98
2018-05-10T10:59:28.337Z,1007.92
2018-05-10T11:00:28.349Z,1007.96
2018-05-10T11:01:28.352Z,1008.04
2018-05-10T11:02:28.353Z,1007.99
2018-05-10T11:03:28.359Z,1008.03
2018-05-10T11:04:28.370Z,1007.99
2018-05-10T11:05:28.369Z,1007.99
2018-05-10T11:06:28.382Z,1008.01
2018-05-10T11:07:28.384Z,1008.04
2018-05-10T11:08:28.388Z,1008.05
2018-05-10T11:09:28.393Z,1008.06
2018-05-10T11:10:28.394Z,1008.09
2018-05-10T11:11:28.399Z,1008.12
2018-05-10T11:12:28.402Z,1008.18
2018-05-10T11:13:28.407Z,1008.18
2018-05-10T11:14:28.416Z,1008.22
2018-05-10T11:15:28.419Z,1008.18
2018-05-10T11:16:28.420Z,1008.14
2018-05-10T11:17:28.421Z,1008.25
2018-05-10T11:18:28.431Z,1008.24
2018-05-10T11:19:28.435Z,1008.24
2018-05-10T11:20:28.437Z,1008.28
2018-05-10T11:21:28.441Z,1008.29
2018-05-10T11:22:28.440Z,1008.29
2018-05-10T11:23:28.443Z,1008.30
2018-05-10T11:24:28.446Z,1008.37
2018-05-10T11:25:28.449Z,1008.39
2018-05-10T11:26:28.459Z,1008.35
2018-05-10T11:27:28.461Z,1008.35
2018-05-10T11:28:28.463Z,1008.37
2018-05-10T11:29:28.465Z,1008.39
2018-05-10T11:30:28.464Z,1008.38
2018-05-10T11:31:28.467Z,1008.43
2018-05-10T11:32:28.474Z,1008.43
2018-05-10T11:33:28.476Z,1008.43
2018-05-10T11:34:28.475Z,1008.43
2018-05-10T11:35:28.478Z,1008.51
2018-05-10T11:36:28.481Z,1008.50
2018-05-10T11:37:28.483Z,1008.52
2018-05-10T11:38:28.491Z,1008.51
2018-05-10T11:39:28.499Z,1008.53
2018-05-10T11:40:28.500Z,1008.54
2018-05-10T11:41:28.497Z,1008.47
2018-05-10T11:42:28.494Z,1008.56
2018-05-10T11:43:28.496Z,1008.59
2018-05-10T11:44:28.583Z,1008.60
2018-05-10T11:45:28.501Z,1008.61
2018-05-10T11:46:28.507Z,1008.58
2018-05-10T11:47:28.510Z,1008.58
2018-05-10T11:48:28.508Z,1008.56
2018-05-10T11:49:28.509Z,1008.58
2018-05-10T11:50:28.516Z,1008.67
2018-05-10T11:51:28.518Z,1008.65
2018-05-10T11:52:28.521Z,1008.64
2018-05-10T11:53:28.523Z,1008.64
2018-05-10T11:54:28.521Z,1008.67
2018-05-10T11:55:28.521Z,1008.72
2018-05-10T11:56:28.524Z,1008.71
2018-05-10T11:57:28.525Z,1008.73
2018-05-10T11:58:28.532Z,1008.76
2018-05-10T11:59:28.535Z,1008.71
2018-05-10T12:00:28.536Z,1008.72
2018-05-10T12:01:28.538Z,1008.72
2018-05-10T12:02:28.585Z,1008.75
2018-05-10T12:03:28.537Z,1008.77
2018-05-10T12:04:28.544Z,1008.71
2018-05-10T12:05:28.544Z,1008.75